createdAt,value
2023-01-25T00:00:55.143Z,100.00
2023-01-25T00:03:23.289Z,100.00
2023-01-25T00:05:59.982Z,100.00
2023-01-25T00:08:28.074Z,100.00
2023-01-25T00:10:58.255Z,100.00
2023-01-25T00:13:28.215Z,100.00
2023-01-25T00:16:03.237Z,100.00
2023-01-25T00:18:31.707Z,100.00
2023-01-25T00:20:59.807Z,100.00
2023-01-25T00:23:27.870Z,100.00
2023-01-25T00:25:59.023Z,100.00
2023-01-25T00:28:28.682Z,100.00
2023-01-25T00:31:01.246Z,100.00
2023-01-25T00:33:41.844Z,100.00
2023-01-25T00:36:34.863Z,100.00
2023-01-25T00:39:02.940Z,100.00
2023-01-25T00:41:30.997Z,100.00
2023-01-25T00:44:00.570Z,100.00
2023-01-25T00:46:29.077Z,100.00
2023-01-25T00:48:57.717Z,100.00
2023-01-25T00:51:26.300Z,100.00
2023-01-25T00:53:54.693Z,100.00
2023-01-25T00:56:23.006Z,100.00
2023-01-25T00:58:51.163Z,100.00
2023-01-25T01:01:20.855Z,100.00
2023-01-25T01:03:49.027Z,100.00
2023-01-25T01:06:17.214Z,100.00
2023-01-25T01:08:45.477Z,100.00
2023-01-25T01:11:14.443Z,100.00
2023-01-25T01:13:42.584Z,100.00
2023-01-25T01:16:13.013Z,100.00
2023-01-25T01:18:45.288Z,100.00
2023-01-25T01:21:14.467Z,100.00
2023-01-25T01:23:43.021Z,100.00
2023-01-25T01:26:14.707Z,100.00
2023-01-25T01:28:43.721Z,100.00
2023-01-25T01:31:14.220Z,100.00
2023-01-25T01:33:43.815Z,100.00
2023-01-25T01:36:13.901Z,100.00
2023-01-25T01:38:42.804Z,100.00
2023-01-25T01:41:12.003Z,100.00
2023-01-25T01:43:40.289Z,100.00
2023-01-25T01:46:13.949Z,100.00
2023-01-25T01:48:48.882Z,100.00
2023-01-25T01:51:20.152Z,100.00
2023-01-25T01:53:52.406Z,100.00
2023-01-25T01:56:31.504Z,100.00
2023-01-25T01:59:01.459Z,100.00
2023-01-25T02:01:29.794Z,100.00
2023-01-25T02:04:00.088Z,100.00
2023-01-25T02:06:35.604Z,100.00
2023-01-25T02:09:04.338Z,100.00
2023-01-25T02:11:33.495Z,100.00
2023-01-25T02:14:02.937Z,100.00
2023-01-25T02:16:31.264Z,100.00
2023-01-25T02:19:03.725Z,100.00
2023-01-25T02:21:40.601Z,100.00
2023-01-25T02:24:13.703Z,100.00
2023-01-25T02:26:43.500Z,100.00
2023-01-25T02:29:12.496Z,100.00
2023-01-25T02:31:40.656Z,100.00
2023-01-25T02:34:09.332Z,100.00
2023-01-25T02:36:37.542Z,100.00
2023-01-25T02:39:08.705Z,100.00
2023-01-25T02:41:38.472Z,100.00
2023-01-25T02:44:11.197Z,100.00
2023-01-25T02:46:41.142Z,100.00
2023-01-25T02:49:11.446Z,100.00
2023-01-25T02:51:41.521Z,100.00
2023-01-25T02:54:11.550Z,100.00
2023-01-25T02:56:40.780Z,100.00
2023-01-25T02:59:13.323Z,100.00
2023-01-25T03:01:43.521Z,100.00
2023-01-25T03:04:12.241Z,100.00
2023-01-25T03:06:40.974Z,100.00
2023-01-25T03:09:11.565Z,100.00
2023-01-25T03:11:39.685Z,100.00
2023-01-25T03:14:07.742Z,100.00
2023-01-25T03:16:37.492Z,100.00
2023-01-25T03:19:05.696Z,100.00
2023-01-25T03:21:33.779Z,100.00
2023-01-25T03:24:02.883Z,100.00
2023-01-25T03:26:31.164Z,100.00
2023-01-25T03:28:59.462Z,100.00
2023-01-25T03:31:27.684Z,100.00
2023-01-25T03:33:57.286Z,100.00
2023-01-25T03:36:25.340Z,100.00
2023-01-25T03:38:53.462Z,100.00
2023-01-25T03:41:21.695Z,100.00
2023-01-25T03:43:49.766Z,100.00
2023-01-25T03:46:17.812Z,100.00
2023-01-25T03:48:46.030Z,100.00
2023-01-25T03:51:15.487Z,100.00
2023-01-25T03:53:43.621Z,100.00
2023-01-25T03:56:17.609Z,100.00
2023-01-25T03:58:45.727Z,100.00
2023-01-25T04:01:13.948Z,100.00
2023-01-25T04:03:42.066Z,100.00
2023-01-25T04:06:10.327Z,100.00
2023-01-25T04:08:39.811Z,100.00
2023-01-25T04:11:10.200Z,100.00
2023-01-25T04:13:39.143Z,100.00
2023-01-25T04:16:09.732Z,100.00
2023-01-25T04:18:37.937Z,100.00
2023-01-25T04:21:06.271Z,100.00
2023-01-25T04:23:34.560Z,100.00
2023-01-25T04:26:07.255Z,100.00
2023-01-25T04:28:36.835Z,100.00
2023-01-25T04:31:06.264Z,100.00
2023-01-25T04:33:35.176Z,100.00
2023-01-25T04:36:03.820Z,100.00
2023-01-25T04:38:31.991Z,100.00
2023-01-25T04:41:00.236Z,100.00
2023-01-25T04:43:29.836Z,100.00
2023-01-25T04:45:58.034Z,100.00
2023-01-25T04:48:26.215Z,100.00
2023-01-25T04:50:54.198Z,100.00
2023-01-25T04:53:22.418Z,100.00
2023-01-25T04:55:50.888Z,100.00
2023-01-25T04:58:19.596Z,100.00
2023-01-25T05:00:49.081Z,100.00
2023-01-25T05:03:17.194Z,100.00
2023-01-25T05:05:48.355Z,100.00
2023-01-25T05:08:16.501Z,100.00
2023-01-25T05:10:44.884Z,100.00
2023-01-25T05:13:13.351Z,100.00
2023-01-25T05:15:41.466Z,100.00
2023-01-25T05:18:11.186Z,100.00
2023-01-25T05:20:39.301Z,100.00
2023-01-25T05:23:07.378Z,100.00
2023-01-25T05:25:52.975Z,100.00
2023-01-25T05:28:21.049Z,100.00
2023-01-25T05:30:49.571Z,100.00
2023-01-25T05:33:19.059Z,100.00
2023-01-25T05:35:47.126Z,100.00
2023-01-25T05:38:15.167Z,100.00
2023-01-25T05:40:43.284Z,100.00
2023-01-25T05:43:11.350Z,100.00
2023-01-25T05:45:40.427Z,100.00
2023-01-25T05:48:08.902Z,100.00
2023-01-25T05:50:38.347Z,100.00
2023-01-25T05:53:06.423Z,100.00
2023-01-25T05:55:36.763Z,100.00
2023-01-25T05:58:04.793Z,100.00
2023-01-25T06:00:33.020Z,100.00
2023-01-25T06:03:02.356Z,100.00
2023-01-25T06:05:30.519Z,100.00
2023-01-25T06:08:00.917Z,100.00
2023-01-25T06:10:28.965Z,100.00
2023-01-25T06:13:00.097Z,100.00
2023-01-25T06:15:28.281Z,100.00
2023-01-25T06:17:57.059Z,100.00
2023-01-25T06:20:25.114Z,100.00
2023-01-25T06:22:53.585Z,100.00
2023-01-25T06:25:23.191Z,100.00
2023-01-25T06:27:51.283Z,100.00
2023-01-25T06:30:19.776Z,100.00
2023-01-25T06:32:47.972Z,100.00
2023-01-25T06:35:16.094Z,100.00
2023-01-25T06:37:44.349Z,100.00
2023-01-25T06:40:13.366Z,100.00
2023-01-25T06:42:43.448Z,100.00
2023-01-25T06:45:12.431Z,100.00
2023-01-25T06:47:41.270Z,100.00
2023-01-25T06:50:11.245Z,100.00
2023-01-25T06:52:39.606Z,100.00
2023-01-25T06:55:12.921Z,100.00
2023-01-25T06:57:43.323Z,100.00
2023-01-25T07:00:12.755Z,100.00
2023-01-25T07:02:40.889Z,100.00
2023-01-25T07:05:10.189Z,100.00
2023-01-25T07:07:38.512Z,100.00
2023-01-25T07:10:07.330Z,100.00
2023-01-25T07:12:35.359Z,100.00
2023-01-25T07:15:05.539Z,100.00
2023-01-25T07:17:33.616Z,100.00
2023-01-25T07:20:01.868Z,100.00
2023-01-25T07:22:30.012Z,100.00
2023-01-25T07:24:59.106Z,100.00
2023-01-25T07:27:27.191Z,100.00
2023-01-25T07:29:55.392Z,100.00
2023-01-25T07:32:24.857Z,100.00
2023-01-25T07:34:52.894Z,100.00
2023-01-25T07:37:20.997Z,100.00
2023-01-25T07:39:50.640Z,100.00
2023-01-25T07:42:18.810Z,100.00
2023-01-25T07:44:46.934Z,100.00
2023-01-25T07:47:15.528Z,100.00
2023-01-25T07:49:45.015Z,100.00
2023-01-25T07:52:13.147Z,100.00
2023-01-25T07:54:41.191Z,100.00
2023-01-25T07:57:09.302Z,98.55
2023-01-25T07:59:37.430Z,99.04
2023-01-25T08:02:05.501Z,98.61
2023-01-25T08:04:33.580Z,98.09
2023-01-25T08:07:03.194Z,98.21
2023-01-25T08:09:31.466Z,98.50
2023-01-25T08:11:59.595Z,98.90
2023-01-25T08:14:27.990Z,99.03
2023-01-25T08:16:56.064Z,98.67
2023-01-25T08:19:25.077Z,97.89
2023-01-25T08:21:53.184Z,97.96
2023-01-25T08:24:24.616Z,97.98
2023-01-25T08:26:53.623Z,97.73
2023-01-25T08:29:21.699Z,97.96
2023-01-25T08:31:49.812Z,97.89
2023-01-25T08:34:17.938Z,96.44
2023-01-25T08:36:46.056Z,95.97
2023-01-25T08:39:14.738Z,94.70
2023-01-25T08:41:45.638Z,93.86
2023-01-25T08:44:13.702Z,93.41
2023-01-25T08:46:41.767Z,92.24
2023-01-25T08:49:11.535Z,90.85
2023-01-25T08:51:39.586Z,92.04
2023-01-25T08:54:09.105Z,91.21
2023-01-25T08:56:38.798Z,90.30
2023-01-25T08:59:08.449Z,88.88
2023-01-25T09:01:36.555Z,88.48
2023-01-25T09:04:04.943Z,89.04
2023-01-25T09:06:34.237Z,90.55
2023-01-25T09:09:02.332Z,87.53
2023-01-25T09:11:30.515Z,87.31
2023-01-25T09:13:58.675Z,87.49
2023-01-25T09:16:29.633Z,85.91
2023-01-25T09:18:59.121Z,86.02
2023-01-25T09:21:27.442Z,84.31
2023-01-25T09:24:11.506Z,83.20
2023-01-25T09:26:43.012Z,81.89
2023-01-25T09:29:13.179Z,79.80
2023-01-25T09:31:44.066Z,79.53
2023-01-25T09:34:13.247Z,80.41
2023-01-25T09:36:42.302Z,79.54
2023-01-25T09:39:12.317Z,79.18
2023-01-25T09:42:16.039Z,75.90
2023-01-25T09:45:10.709Z,73.99
2023-01-25T09:47:46.775Z,73.11
2023-01-25T09:50:43.602Z,72.23
2023-01-25T09:53:24.464Z,71.02
2023-01-25T09:55:55.598Z,70.38
2023-01-25T09:58:29.359Z,69.41
2023-01-25T10:01:19.607Z,68.41
2023-01-25T10:03:56.404Z,69.10
2023-01-25T10:06:30.518Z,69.31
2023-01-25T10:09:05.079Z,66.88
2023-01-25T10:11:34.566Z,66.95
2023-01-25T10:14:02.695Z,65.86
2023-01-25T10:16:35.603Z,64.57
2023-01-25T10:19:19.604Z,63.45
2023-01-25T10:21:51.190Z,63.78
2023-01-25T10:24:45.618Z,63.46
2023-01-25T10:27:23.067Z,63.71
2023-01-25T10:29:55.267Z,62.69
2023-01-25T10:32:28.476Z,62.88
2023-01-25T10:34:59.940Z,61.58
2023-01-25T10:37:32.193Z,61.78
2023-01-25T10:40:04.597Z,61.21
2023-01-25T10:42:40.884Z,61.08
2023-01-25T10:45:13.671Z,60.58
2023-01-25T10:47:45.116Z,59.12
2023-01-25T10:50:46.400Z,57.84
2023-01-25T10:53:28.091Z,58.95
2023-01-25T10:56:19.704Z,59.04
2023-01-25T10:58:51.084Z,59.12
2023-01-25T11:01:30.987Z,57.91
2023-01-25T11:04:00.094Z,58.37
2023-01-25T11:06:38.121Z,58.65
2023-01-25T11:09:33.112Z,56.80
2023-01-25T11:12:02.925Z,57.53
2023-01-25T11:14:32.790Z,57.58
2023-01-25T11:17:03.203Z,57.16
2023-01-25T11:19:35.120Z,56.97
2023-01-25T11:22:07.159Z,56.13
2023-01-25T11:24:36.477Z,55.97
2023-01-25T11:27:18.723Z,55.61
2023-01-25T11:29:47.942Z,55.63
2023-01-25T11:32:22.866Z,55.56
2023-01-25T11:34:52.106Z,55.85
2023-01-25T11:37:43.789Z,56.46
2023-01-25T11:40:18.986Z,56.56
2023-01-25T11:43:01.292Z,56.33
2023-01-25T11:45:56.503Z,56.45
2023-01-25T11:48:46.340Z,56.62
2023-01-25T11:51:25.106Z,56.33
2023-01-25T11:54:10.643Z,57.31
2023-01-25T11:56:51.170Z,56.38
2023-01-25T11:59:40.193Z,56.92
2023-01-25T12:02:48.928Z,56.93
2023-01-25T12:05:29.422Z,56.84
2023-01-25T12:08:14.408Z,57.50
2023-01-25T12:10:55.220Z,57.49
2023-01-25T12:13:31.868Z,57.71
2023-01-25T12:16:19.321Z,57.85
2023-01-25T12:19:02.214Z,58.50
2023-01-25T12:21:43.474Z,58.84
2023-01-25T12:24:35.084Z,59.05
2023-01-25T12:27:16.112Z,58.67
2023-01-25T12:29:50.986Z,59.32
2023-01-25T12:32:25.617Z,60.17
2023-01-25T12:35:05.387Z,59.90
2023-01-25T12:37:38.913Z,60.27
2023-01-25T12:40:13.708Z,60.42
2023-01-25T12:42:48.845Z,59.58
2023-01-25T12:45:18.447Z,59.80
2023-01-25T12:47:52.243Z,59.36
2023-01-25T12:50:25.810Z,59.66
2023-01-25T12:52:58.487Z,59.94
2023-01-25T12:55:27.038Z,59.70
2023-01-25T12:58:01.918Z,60.46
2023-01-25T13:00:34.536Z,60.46
2023-01-25T13:03:24.751Z,60.58
2023-01-25T13:05:58.484Z,59.85
2023-01-25T13:08:38.739Z,59.86
2023-01-25T13:11:17.292Z,60.62
2023-01-25T13:13:46.931Z,60.23
2023-01-25T13:16:37.770Z,59.88
2023-01-25T13:19:06.332Z,60.63
2023-01-25T13:21:45.095Z,60.59
2023-01-25T13:24:20.366Z,60.63
2023-01-25T13:26:50.924Z,61.15
2023-01-25T13:29:55.674Z,61.16
2023-01-25T13:33:03.650Z,60.98
2023-01-25T13:35:43.037Z,61.16
2023-01-25T13:38:33.881Z,60.53
2023-01-25T13:41:17.149Z,60.90
2023-01-25T13:43:49.663Z,60.89
2023-01-25T13:46:24.314Z,60.73
2023-01-25T13:49:02.383Z,61.05
2023-01-25T13:51:36.004Z,61.43
2023-01-25T13:54:04.250Z,61.43
2023-01-25T13:56:34.653Z,61.96
2023-01-25T13:59:03.509Z,61.68
2023-01-25T14:01:37.252Z,61.15
2023-01-25T14:04:06.773Z,61.14
2023-01-25T14:06:38.868Z,61.62
2023-01-25T14:09:16.764Z,61.56
2023-01-25T14:11:47.771Z,61.28
2023-01-25T14:14:21.948Z,61.21
2023-01-25T14:17:14.451Z,61.87
2023-01-25T14:19:44.605Z,62.05
2023-01-25T14:22:27.405Z,63.44
2023-01-25T14:25:13.317Z,62.70
2023-01-25T14:27:47.276Z,61.26
2023-01-25T14:30:26.914Z,60.60
2023-01-25T14:32:59.114Z,60.65
2023-01-25T14:35:43.653Z,61.27
2023-01-25T14:38:28.541Z,60.90
2023-01-25T14:40:58.156Z,59.81
2023-01-25T14:43:27.958Z,59.26
2023-01-25T14:45:56.029Z,59.43
2023-01-25T14:48:41.528Z,58.80
2023-01-25T14:51:22.098Z,59.37
2023-01-25T14:53:57.127Z,59.25
2023-01-25T14:56:31.286Z,59.00
2023-01-25T14:59:00.397Z,59.36
2023-01-25T15:01:38.429Z,58.66
2023-01-25T15:04:12.555Z,58.76
2023-01-25T15:06:48.911Z,59.18
2023-01-25T15:09:34.599Z,59.94
2023-01-25T15:12:04.800Z,60.08
2023-01-25T15:14:33.076Z,60.85
2023-01-25T15:17:01.209Z,61.76
2023-01-25T15:19:34.487Z,62.21
2023-01-25T15:22:02.576Z,62.83
2023-01-25T15:24:30.685Z,62.57
2023-01-25T15:26:58.814Z,62.75
2023-01-25T15:29:27.763Z,62.63
2023-01-25T15:31:57.509Z,62.56
2023-01-25T15:34:30.454Z,62.59
2023-01-25T15:36:59.908Z,62.84
2023-01-25T15:39:28.907Z,63.19
2023-01-25T15:41:57.128Z,63.35
2023-01-25T15:44:25.234Z,62.36
2023-01-25T15:46:53.700Z,62.80
2023-01-25T15:49:26.813Z,62.84
2023-01-25T15:51:55.424Z,63.08
2023-01-25T15:54:25.256Z,62.90
2023-01-25T15:56:56.640Z,63.41
2023-01-25T15:59:25.186Z,62.56
2023-01-25T16:01:54.699Z,63.04
2023-01-25T16:04:25.201Z,63.40
2023-01-25T16:06:54.964Z,63.28
2023-01-25T16:09:26.839Z,62.87
2023-01-25T16:11:56.486Z,62.44
2023-01-25T16:14:29.254Z,62.52
2023-01-25T16:17:01.516Z,62.40
2023-01-25T16:19:30.089Z,62.90
2023-01-25T16:21:58.652Z,63.24
2023-01-25T16:24:28.307Z,63.19
2023-01-25T16:26:58.170Z,63.10
2023-01-25T16:29:26.407Z,63.83
2023-01-25T16:31:55.427Z,63.46
2023-01-25T16:34:23.599Z,62.42
2023-01-25T16:36:52.937Z,62.02
2023-01-25T16:39:23.138Z,62.17
2023-01-25T16:41:52.725Z,62.28
2023-01-25T16:44:21.091Z,62.50
2023-01-25T16:46:50.350Z,62.38
2023-01-25T16:49:21.565Z,62.02
2023-01-25T16:51:50.754Z,62.11
2023-01-25T16:54:20.641Z,61.25
2023-01-25T16:56:49.468Z,61.60
2023-01-25T16:59:19.509Z,61.74
2023-01-25T17:01:47.874Z,61.43
2023-01-25T17:04:16.504Z,60.97
2023-01-25T17:06:46.961Z,60.88
2023-01-25T17:09:23.591Z,60.61
2023-01-25T17:11:52.400Z,60.70
2023-01-25T17:14:22.729Z,60.84
2023-01-25T17:16:55.415Z,61.02
2023-01-25T17:19:23.956Z,61.43
2023-01-25T17:21:52.093Z,61.56
2023-01-25T17:24:22.382Z,61.21
2023-01-25T17:26:50.888Z,61.26
2023-01-25T17:29:19.035Z,61.34
2023-01-25T17:31:48.962Z,61.54
2023-01-25T17:34:19.520Z,61.85
2023-01-25T17:36:48.034Z,61.82
2023-01-25T17:39:17.383Z,62.07
2023-01-25T17:41:45.813Z,61.63
2023-01-25T17:44:14.887Z,61.68
2023-01-25T17:46:42.894Z,61.60
2023-01-25T17:49:18.052Z,62.03
2023-01-25T17:51:46.486Z,62.19
2023-01-25T17:54:14.782Z,62.08
2023-01-25T17:56:42.863Z,62.68
2023-01-25T17:59:11.694Z,62.79
2023-01-25T18:01:42.699Z,63.00
2023-01-25T18:04:13.373Z,64.32
2023-01-25T18:06:41.795Z,64.72
2023-01-25T18:09:10.447Z,64.40
2023-01-25T18:11:40.879Z,64.22
2023-01-25T18:14:12.699Z,64.06
2023-01-25T18:16:42.545Z,63.68
2023-01-25T18:19:12.567Z,63.58
2023-01-25T18:21:42.085Z,63.44
2023-01-25T18:24:26.137Z,63.78
2023-01-25T18:27:00.190Z,63.60
2023-01-25T18:29:45.554Z,64.38
2023-01-25T18:32:13.481Z,64.20
2023-01-25T18:34:42.998Z,64.10
2023-01-25T18:37:20.524Z,64.08
2023-01-25T18:39:49.925Z,63.76
2023-01-25T18:42:18.182Z,63.46
2023-01-25T18:44:48.589Z,63.72
2023-01-25T18:47:18.618Z,63.52
2023-01-25T18:49:49.308Z,63.31
2023-01-25T18:52:18.372Z,63.38
2023-01-25T18:54:47.244Z,63.71
2023-01-25T18:57:15.376Z,63.20
2023-01-25T18:59:43.813Z,63.79
2023-01-25T19:02:13.173Z,63.88
2023-01-25T19:04:41.377Z,63.85
2023-01-25T19:07:10.947Z,64.08
2023-01-25T19:09:39.177Z,63.79
2023-01-25T19:12:08.140Z,64.06
2023-01-25T19:14:36.850Z,63.36
2023-01-25T19:17:04.999Z,63.72
2023-01-25T19:19:34.105Z,64.10
2023-01-25T19:22:02.724Z,64.06
2023-01-25T19:24:32.154Z,64.30
2023-01-25T19:27:00.286Z,64.06
2023-01-25T19:29:28.767Z,64.44
2023-01-25T19:31:58.977Z,64.83
2023-01-25T19:34:27.370Z,64.90
2023-01-25T19:36:55.896Z,64.91
2023-01-25T19:39:24.192Z,64.89
2023-01-25T19:41:54.542Z,65.02
2023-01-25T19:44:24.000Z,65.62
2023-01-25T19:46:52.325Z,65.45
2023-01-25T19:49:22.415Z,65.57
2023-01-25T19:51:53.368Z,66.14
2023-01-25T19:54:23.139Z,66.81
2023-01-25T19:56:51.912Z,65.63
2023-01-25T19:59:25.009Z,65.79
2023-01-25T20:01:53.638Z,66.66
2023-01-25T20:04:23.708Z,67.35
2023-01-25T20:06:52.369Z,68.00
2023-01-25T20:09:25.075Z,67.27
2023-01-25T20:11:55.594Z,65.77
2023-01-25T20:14:25.186Z,66.29
2023-01-25T20:16:53.690Z,65.60
2023-01-25T20:19:21.828Z,64.78
2023-01-25T20:21:50.025Z,64.58
2023-01-25T20:24:18.085Z,64.37
2023-01-25T20:26:46.326Z,63.46
2023-01-25T20:29:14.757Z,64.22
2023-01-25T20:31:45.424Z,63.57
2023-01-25T20:34:15.616Z,63.70
2023-01-25T20:36:44.332Z,63.19
2023-01-25T20:39:14.963Z,62.91
2023-01-25T20:41:43.312Z,63.43
2023-01-25T20:44:13.912Z,63.61
2023-01-25T20:46:43.872Z,63.58
2023-01-25T20:49:15.882Z,63.10
2023-01-25T20:51:44.199Z,62.78
2023-01-25T20:54:12.702Z,62.77
2023-01-25T20:56:41.223Z,63.06
2023-01-25T20:59:10.100Z,62.75
2023-01-25T21:01:38.296Z,63.06
2023-01-25T21:04:09.787Z,63.58
2023-01-25T21:06:38.755Z,63.53
2023-01-25T21:09:07.268Z,63.58
2023-01-25T21:11:35.373Z,63.95
2023-01-25T21:14:03.609Z,64.26
2023-01-25T21:16:31.775Z,63.95
2023-01-25T21:19:05.195Z,63.69
2023-01-25T21:21:35.545Z,63.88
2023-01-25T21:24:05.961Z,63.86
2023-01-25T21:26:35.354Z,64.25
2023-01-25T21:29:04.708Z,64.07
2023-01-25T21:31:34.339Z,65.21
2023-01-25T21:34:03.283Z,65.88
2023-01-25T21:36:31.513Z,65.94
2023-01-25T21:39:01.025Z,67.04
2023-01-25T21:41:30.678Z,67.41
2023-01-25T21:44:17.952Z,68.11
2023-01-25T21:47:00.717Z,68.90
2023-01-25T21:49:52.146Z,69.93
2023-01-25T21:52:20.213Z,70.01
2023-01-25T21:54:49.771Z,70.18
2023-01-25T21:57:18.013Z,71.06
2023-01-25T21:59:46.062Z,71.52
2023-01-25T22:02:15.738Z,71.38
2023-01-25T22:04:43.965Z,71.10
2023-01-25T22:07:12.870Z,70.01
2023-01-25T22:09:41.117Z,68.96
2023-01-25T22:12:12.352Z,68.72
2023-01-25T22:14:40.707Z,68.53
2023-01-25T22:17:08.779Z,67.56
2023-01-25T22:19:36.869Z,68.09
2023-01-25T22:22:04.956Z,69.26
2023-01-25T22:24:32.993Z,69.47
2023-01-25T22:27:27.651Z,70.55
2023-01-25T22:29:57.216Z,70.25
2023-01-25T22:32:25.447Z,70.04
2023-01-25T22:34:53.540Z,70.00
2023-01-25T22:37:21.922Z,69.89
2023-01-25T22:39:50.437Z,69.60
2023-01-25T22:42:18.472Z,69.62
2023-01-25T22:44:46.738Z,70.17
2023-01-25T22:47:16.334Z,70.42
2023-01-25T22:49:44.324Z,70.05
2023-01-25T22:52:12.362Z,69.64
2023-01-25T22:54:40.473Z,69.57
2023-01-25T22:57:08.536Z,69.98
2023-01-25T22:59:36.576Z,70.65
2023-01-25T23:02:04.603Z,71.06
2023-01-25T23:04:34.109Z,70.76
2023-01-25T23:07:12.860Z,71.43
2023-01-25T23:09:41.797Z,72.81
2023-01-25T23:12:09.885Z,73.45
2023-01-25T23:14:52.988Z,75.19
2023-01-25T23:17:40.174Z,75.81
2023-01-25T23:20:12.326Z,76.61
2023-01-25T23:22:40.744Z,76.42
2023-01-25T23:25:10.155Z,76.69
2023-01-25T23:27:38.471Z,78.35
2023-01-25T23:30:09.270Z,78.97
2023-01-25T23:32:37.713Z,79.20
2023-01-25T23:35:06.802Z,79.50
2023-01-25T23:37:36.302Z,79.77
2023-01-25T23:40:04.604Z,80.28
2023-01-25T23:42:32.627Z,80.44
2023-01-25T23:45:00.703Z,80.98
2023-01-25T23:47:31.226Z,81.38
2023-01-25T23:49:59.380Z,81.59
2023-01-25T23:52:27.617Z,81.47
2023-01-25T23:54:57.132Z,82.08
2023-01-25T23:57:25.259Z,82.14
2023-01-25T23:59:53.357Z,82.16
